Time;durP1;ratioP1;P1;durP2;ratioP2;P2;SDS_P1;SDS_P2;PMS_P1;PMS_P2;Temp;Humidity;BMP_temperature;BMP_pressure;BME280_temperature;BME280_humidity;BME280_pressure;Samples;Min_cycle;Max_cycle;Signal;HPM_P1;HPM_P2
2022/08/13 00:01:14;;;;;;;;;;;25.10;61.50;;;;;;5053334;28;20410;-56
2022/08/13 00:03:40;;;;;;;;;;;25.10;61.70;;;;;;5053573;28;19962;-57
2022/08/13 00:06:08;;;;;;;;;;;25.00;61.70;;;;;;5053001;28;19945;-55
2022/08/13 00:08:38;;;;;;;;;;;25.00;62.30;;;;;;5052953;28;19909;-57
2022/08/13 00:11:05;;;;;;;;;;;25.00;61.80;;;;;;5052513;28;19913;-56
2022/08/13 00:13:31;;;;;;;;;;;25.00;61.80;;;;;;5051737;28;19920;-58
2022/08/13 00:15:59;;;;;;;;;;;25.00;61.90;;;;;;5053829;28;19909;-58
2022/08/13 00:18:26;;;;;;;;;;;25.00;62.00;;;;;;5048148;28;19924;-58
2022/08/13 00:20:54;;;;;;;;;;;25.00;62.10;;;;;;5034083;28;19913;-59
2022/08/13 00:23:20;;;;;;;;;;;24.90;62.10;;;;;;5043896;28;19944;-58
2022/08/13 00:25:46;;;;;;;;;;;24.90;62.20;;;;;;5053294;28;19936;-56
2022/08/13 00:28:15;;;;;;;;;;;24.90;62.30;;;;;;5053217;28;20019;-55
2022/08/13 00:30:40;;;;;;;;;;;24.80;62.40;;;;;;5053558;28;19916;-52
2022/08/13 00:33:12;;;;;;;;;;;24.90;62.60;;;;;;5052310;28;19921;-54
2022/08/13 00:35:50;;;;;;;;;;;24.80;62.60;;;;;;5053010;28;20296;-57
2022/08/13 00:38:17;;;;;;;;;;;24.80;62.90;;;;;;5053088;28;20288;-55
2022/08/13 00:40:44;;;;;;;;;;;24.80;62.90;;;;;;5053418;28;19909;-53
2022/08/13 00:43:10;;;;;;;;;;;24.70;62.90;;;;;;5054216;28;20292;-55
2022/08/13 00:45:35;;;;;;;;;;;24.70;63.10;;;;;;5053741;28;20356;-58
2022/08/13 00:51:08;;;;;;;;;;;24.70;63.20;;;;;;5050865;28;19956;-55
2022/08/13 00:53:36;;;;;;;;;;;24.70;63.40;;;;;;5053483;28;19916;-55
2022/08/13 00:56:01;;;;;;;;;;;24.70;63.50;;;;;;5042141;28;20003;-57
2022/08/13 00:58:27;;;;;;;;;;;24.60;63.50;;;;;;5048713;28;19959;-56
2022/08/13 01:00:56;;;;;;;;;;;24.60;63.80;;;;;;5052074;28;20331;-57
2022/08/13 01:03:22;;;;;;;;;;;24.60;63.90;;;;;;5052760;28;19920;-57
2022/08/13 01:05:48;;;;;;;;;;;24.50;64.00;;;;;;5052685;28;19909;-57
2022/08/13 01:08:16;;;;;;;;;;;24.50;64.10;;;;;;5052459;28;20424;-58
2022/08/13 01:10:45;;;;;;;;;;;24.50;64.00;;;;;;5052264;28;20684;-55
2022/08/13 01:13:11;;;;;;;;;;;24.60;64.00;;;;;;5052630;28;19943;-58
2022/08/13 01:15:40;;;;;;;;;;;24.40;64.40;;;;;;5054004;28;19962;-57
2022/08/13 01:18:06;;;;;;;;;;;24.40;65.10;;;;;;5049815;28;20393;-57
2022/08/13 01:20:34;;;;;;;;;;;24.00;65.90;;;;;;5035364;28;19971;-55
2022/08/13 01:23:01;;;;;;;;;;;23.90;66.10;;;;;;5052686;28;19912;-55
2022/08/13 01:25:27;;;;;;;;;;;23.80;66.70;;;;;;5053256;28;20007;-56
2022/08/13 01:27:53;;;;;;;;;;;23.70;66.70;;;;;;5052651;28;19913;-55
2022/08/13 01:30:20;;;;;;;;;;;23.70;66.80;;;;;;5053708;28;19913;-57
2022/08/13 01:32:46;;;;;;;;;;;23.70;66.80;;;;;;5052111;28;19921;-55
2022/08/13 01:35:13;;;;;;;;;;;23.80;66.70;;;;;;5053425;28;19920;-56
2022/08/13 01:37:39;;;;;;;;;;;23.70;67.60;;;;;;5053779;28;19917;-54
2022/08/13 01:40:05;;;;;;;;;;;23.60;67.60;;;;;;5053229;28;20376;-53
2022/08/13 01:42:42;;;;;;;;;;;23.60;67.70;;;;;;5054312;28;19913;-56
2022/08/13 01:45:09;;;;;;;;;;;23.50;67.70;;;;;;5051857;28;19970;-56
2022/08/13 01:50:31;;;;;;;;;;;23.60;67.70;;;;;;5052559;28;20221;-52
2022/08/13 01:53:16;;;;;;;;;;;23.60;67.70;;;;;;5066982;28;19959;-54
2022/08/13 01:55:52;;;;;;;;;;;23.60;67.70;;;;;;5068542;28;19919;-55
2022/08/13 01:58:22;;;;;;;;;;;23.60;68.50;;;;;;5052569;28;19920;-56
2022/08/13 02:00:53;;;;;;;;;;;23.40;68.40;;;;;;5052241;28;20391;-57
2022/08/13 02:03:19;;;;;;;;;;;23.30;68.60;;;;;;5055645;28;19920;-53
2022/08/13 02:05:47;;;;;;;;;;;23.30;68.90;;;;;;5056228;28;19913;-56
2022/08/13 02:08:13;;;;;;;;;;;23.30;68.90;;;;;;5054474;28;19978;-56
2022/08/13 02:10:40;;;;;;;;;;;23.20;68.90;;;;;;5055778;28;19921;-56
2022/08/13 02:13:06;;;;;;;;;;;23.10;69.50;;;;;;5059315;28;19933;-54
2022/08/13 02:15:32;;;;;;;;;;;22.90;70.50;;;;;;5072125;28;19919;-55
2022/08/13 02:18:01;;;;;;;;;;;22.80;70.20;;;;;;5053745;28;19913;-57
2022/08/13 02:20:28;;;;;;;;;;;22.80;70.00;;;;;;5035061;28;20377;-58
2022/08/13 02:22:53;;;;;;;;;;;22.80;70.00;;;;;;5041164;28;19920;-58
2022/08/13 02:25:20;;;;;;;;;;;22.80;70.30;;;;;;5056466;28;19913;-58
2022/08/13 02:27:47;;;;;;;;;;;22.70;70.30;;;;;;5055505;28;19917;-55
2022/08/13 02:30:16;;;;;;;;;;;22.60;70.70;;;;;;5055730;28;19916;-56
2022/08/13 02:32:42;;;;;;;;;;;22.50;70.90;;;;;;5055732;28;19960;-51
2022/08/13 02:35:08;;;;;;;;;;;22.30;71.70;;;;;;5056115;28;20292;-55
2022/08/13 02:37:34;;;;;;;;;;;22.10;72.40;;;;;;5055083;28;19908;-54
2022/08/13 02:40:01;;;;;;;;;;;21.80;73.10;;;;;;5053737;28;20319;-56
2022/08/13 02:42:31;;;;;;;;;;;21.70;73.20;;;;;;5054750;28;20189;-56
2022/08/13 02:44:57;;;;;;;;;;;21.60;72.60;;;;;;5054933;28;19936;-54
2022/08/13 02:47:24;;;;;;;;;;;21.60;72.50;;;;;;5055223;28;19919;-56
2022/08/13 02:49:51;;;;;;;;;;;21.70;72.50;;;;;;5054797;28;19912;-57
2022/08/13 02:52:20;;;;;;;;;;;21.90;72.50;;;;;;5054699;28;20304;-55
2022/08/13 02:54:46;;;;;;;;;;;22.00;72.50;;;;;;5053983;28;19923;-55
2022/08/13 02:57:12;;;;;;;;;;;22.00;72.60;;;;;;5054300;28;19913;-54
2022/08/13 02:59:38;;;;;;;;;;;22.20;72.40;;;;;;5054404;28;19923;-56
2022/08/13 03:02:04;;;;;;;;;;;22.40;72.20;;;;;;5054198;28;20276;-56
2022/08/13 03:04:30;;;;;;;;;;;22.60;72.10;;;;;;5054625;28;20376;-54
2022/08/13 03:06:56;;;;;;;;;;;22.50;72.50;;;;;;5053534;28;19924;-55
2022/08/13 03:09:22;;;;;;;;;;;22.30;72.40;;;;;;5053291;28;19913;-58
2022/08/13 03:11:48;;;;;;;;;;;22.10;72.90;;;;;;5053658;28;19913;-56
2022/08/13 03:14:14;;;;;;;;;;;21.90;72.80;;;;;;5054235;28;20441;-57
2022/08/13 03:16:40;;;;;;;;;;;21.80;73.30;;;;;;5054666;28;19909;-56
2022/08/13 03:19:05;;;;;;;;;;;21.80;73.10;;;;;;5042968;28;19917;-56
2022/08/13 03:21:32;;;;;;;;;;;21.70;73.20;;;;;;5034510;28;19913;-56
2022/08/13 03:23:59;;;;;;;;;;;21.80;73.30;;;;;;5048296;28;19923;-57
2022/08/13 03:26:25;;;;;;;;;;;21.70;73.40;;;;;;5055405;28;19908;-57
2022/08/13 03:28:51;;;;;;;;;;;21.80;73.50;;;;;;5054830;28;19935;-57
2022/08/13 03:31:17;;;;;;;;;;;21.80;73.50;;;;;;5055335;28;19917;-54
2022/08/13 03:33:43;;;;;;;;;;;21.90;73.50;;;;;;5054558;28;19917;-56
2022/08/13 03:36:09;;;;;;;;;;;21.90;74.10;;;;;;5054819;28;19921;-57
2022/08/13 03:38:36;;;;;;;;;;;21.80;74.00;;;;;;5054488;28;19932;-57
2022/08/13 03:41:02;;;;;;;;;;;21.60;74.00;;;;;;5054110;28;20018;-56
2022/08/13 03:43:33;;;;;;;;;;;21.40;74.10;;;;;;5055073;28;20357;-55
2022/08/13 03:45:59;;;;;;;;;;;21.20;74.00;;;;;;5054485;28;19917;-56
2022/08/13 03:48:25;;;;;;;;;;;21.00;75.00;;;;;;5053472;28;19913;-56
2022/08/13 03:50:51;;;;;;;;;;;21.00;75.40;;;;;;5054809;28;20387;-57
2022/08/13 03:53:17;;;;;;;;;;;21.00;75.70;;;;;;5053940;28;19916;-54
2022/08/13 03:55:43;;;;;;;;;;;21.00;75.70;;;;;;5055002;28;19909;-55
2022/08/13 03:58:12;;;;;;;;;;;20.80;75.70;;;;;;5054961;28;19924;-54
2022/08/13 04:00:50;;;;;;;;;;;20.80;75.50;;;;;;5055144;28;19962;-56
2022/08/13 04:03:20;;;;;;;;;;;20.80;75.40;;;;;;5054240;28;20372;-55
2022/08/13 04:05:46;;;;;;;;;;;20.90;75.60;;;;;;5053848;28;19955;-54
2022/08/13 04:08:12;;;;;;;;;;;20.80;75.50;;;;;;5054414;28;19924;-55
2022/08/13 04:10:37;;;;;;;;;;;20.80;75.40;;;;;;5053790;28;19995;-57
2022/08/13 04:13:04;;;;;;;;;;;20.60;75.60;;;;;;5052799;28;20327;-57
2022/08/13 04:15:30;;;;;;;;;;;20.60;75.80;;;;;;5053754;28;20171;-56
2022/08/13 04:17:56;;;;;;;;;;;20.60;76.20;;;;;;5051279;28;19946;-55
2022/08/13 04:20:21;;;;;;;;;;;20.70;76.00;;;;;;5033323;28;19916;-57
2022/08/13 04:22:47;;;;;;;;;;;20.90;75.50;;;;;;5046525;28;19919;-55
2022/08/13 04:25:13;;;;;;;;;;;21.10;75.00;;;;;;5054508;28;19908;-57
2022/08/13 04:27:38;;;;;;;;;;;21.20;75.00;;;;;;5054173;28;19921;-54
2022/08/13 04:30:04;;;;;;;;;;;21.20;74.50;;;;;;5054020;28;20012;-56
2022/08/13 04:32:39;;;;;;;;;;;21.10;73.90;;;;;;5053491;28;19920;-57
2022/08/13 04:35:05;;;;;;;;;;;21.00;74.70;;;;;;5053034;28;20352;-56
2022/08/13 04:37:31;;;;;;;;;;;20.90;74.90;;;;;;5052910;28;19917;-56
2022/08/13 04:39:57;;;;;;;;;;;20.80;75.40;;;;;;5052593;28;19916;-58
2022/08/13 04:42:22;;;;;;;;;;;20.80;75.80;;;;;;5052147;28;19916;-56
2022/08/13 04:44:48;;;;;;;;;;;20.80;75.80;;;;;;5053493;28;19924;-56
2022/08/13 04:47:13;;;;;;;;;;;20.90;75.60;;;;;;5052633;28;20288;-57
2022/08/13 04:49:39;;;;;;;;;;;20.90;76.00;;;;;;5053724;28;19924;-56
2022/08/13 04:52:05;;;;;;;;;;;21.00;75.90;;;;;;5053033;28;19912;-57
2022/08/13 04:54:30;;;;;;;;;;;21.20;75.60;;;;;;5053542;28;19921;-52
2022/08/13 04:56:56;;;;;;;;;;;21.30;75.10;;;;;;5052702;28;19948;-54
2022/08/13 04:59:22;;;;;;;;;;;21.40;75.00;;;;;;5053543;28;19913;-59
2022/08/13 05:01:48;;;;;;;;;;;21.10;74.70;;;;;;5053701;28;19924;-56
2022/08/13 05:04:15;;;;;;;;;;;21.00;75.00;;;;;;5052915;28;20394;-56
2022/08/13 05:06:42;;;;;;;;;;;21.00;75.40;;;;;;5052062;28;20284;-55
2022/08/13 05:09:08;;;;;;;;;;;21.00;75.50;;;;;;5052924;28;20019;-56
2022/08/13 05:11:34;;;;;;;;;;;21.00;75.60;;;;;;5052962;28;19995;-54
2022/08/13 05:13:59;;;;;;;;;;;21.10;75.60;;;;;;5052065;28;19917;-58
2022/08/13 05:16:25;;;;;;;;;;;21.20;75.40;;;;;;5052734;28;20027;-55
2022/08/13 05:18:52;;;;;;;;;;;21.30;75.40;;;;;;5043403;28;20428;-54
2022/08/13 05:21:20;;;;;;;;;;;21.40;75.30;;;;;;5038509;28;19917;-55
2022/08/13 05:23:46;;;;;;;;;;;21.30;75.40;;;;;;5034027;28;20351;-57
2022/08/13 05:26:12;;;;;;;;;;;21.40;75.50;;;;;;5051498;28;20121;-55
2022/08/13 05:28:37;;;;;;;;;;;21.50;75.20;;;;;;5052470;28;19909;-55
2022/08/13 05:31:03;;;;;;;;;;;21.60;75.40;;;;;;5053248;28;20341;-53
2022/08/13 05:33:30;;;;;;;;;;;21.60;75.30;;;;;;5052514;28;19950;-54
2022/08/13 05:35:57;;;;;;;;;;;21.70;74.90;;;;;;5052545;28;19913;-56
2022/08/13 05:38:23;;;;;;;;;;;21.90;74.90;;;;;;5055946;28;19916;-57
2022/08/13 05:40:50;;;;;;;;;;;21.80;75.10;;;;;;5056802;28;20338;-55
2022/08/13 05:43:17;;;;;;;;;;;21.80;74.90;;;;;;5055833;28;19970;-54
2022/08/13 05:45:46;;;;;;;;;;;21.80;74.70;;;;;;5055622;28;19913;-58
2022/08/13 05:48:12;;;;;;;;;;;21.90;74.70;;;;;;5056445;28;19913;-56
2022/08/13 05:50:38;;;;;;;;;;;21.80;75.10;;;;;;5056343;28;19913;-56
2022/08/13 05:53:08;;;;;;;;;;;21.80;75.00;;;;;;5054958;28;20024;-55
2022/08/13 05:55:33;;;;;;;;;;;21.80;74.80;;;;;;5043206;28;19921;-53
2022/08/13 05:57:59;;;;;;;;;;;21.80;74.90;;;;;;5056617;28;20023;-58
2022/08/13 06:03:27;;;;;;;;;;;21.80;75.30;;;;;;5036549;28;19921;-56
2022/08/13 06:06:00;;;;;;;;;;;22.00;74.70;;;;;;5038555;28;19917;-58
2022/08/13 06:08:28;;;;;;;;;;;22.10;74.80;;;;;;5055078;28;19913;-57
2022/08/13 06:10:57;;;;;;;;;;;22.30;74.70;;;;;;5055310;28;19962;-57
2022/08/13 06:13:23;;;;;;;;;;;22.50;74.40;;;;;;5054821;28;19919;-57
2022/08/13 06:15:57;;;;;;;;;;;22.60;74.20;;;;;;5055028;28;19916;-56
2022/08/13 06:18:24;;;;;;;;;;;22.70;73.90;;;;;;5050414;28;19917;-55
2022/08/13 06:20:52;;;;;;;;;;;22.80;73.70;;;;;;5039062;28;20397;-56
2022/08/13 06:23:18;;;;;;;;;;;22.90;73.60;;;;;;5036109;28;19917;-58
2022/08/13 06:25:43;;;;;;;;;;;22.90;73.60;;;;;;5052941;28;19947;-58
2022/08/13 06:28:10;;;;;;;;;;;23.00;73.40;;;;;;5055759;28;19921;-57
2022/08/13 06:30:37;;;;;;;;;;;23.00;73.30;;;;;;5054478;28;20405;-54
2022/08/13 06:33:03;;;;;;;;;;;23.00;73.20;;;;;;5055363;28;19913;-56
2022/08/13 06:35:31;;;;;;;;;;;23.20;73.10;;;;;;5054782;28;19924;-56
2022/08/13 06:37:57;;;;;;;;;;;23.30;73.00;;;;;;5053910;28;19982;-58
2022/08/13 06:40:23;;;;;;;;;;;23.30;72.80;;;;;;5069655;28;19952;-55
2022/08/13 06:42:48;;;;;;;;;;;23.30;72.90;;;;;;5055857;28;19913;-57
2022/08/13 06:45:15;;;;;;;;;;;23.40;72.80;;;;;;5054791;28;20371;-55
2022/08/13 06:47:41;;;;;;;;;;;23.50;72.40;;;;;;5055559;28;20199;-54
2022/08/13 06:50:10;;;;;;;;;;;23.60;72.00;;;;;;5056506;28;20016;-56
2022/08/13 06:52:36;;;;;;;;;;;23.60;72.10;;;;;;5054330;28;20003;-58
2022/08/13 06:55:02;;;;;;;;;;;23.70;72.80;;;;;;5039649;28;19921;-56
2022/08/13 06:57:30;;;;;;;;;;;23.70;72.00;;;;;;5035257;28;19920;-56
2022/08/13 06:59:57;;;;;;;;;;;23.80;72.00;;;;;;5048222;28;20261;-61
2022/08/13 07:02:24;;;;;;;;;;;23.80;71.70;;;;;;5055009;28;19917;-58
2022/08/13 07:04:49;;;;;;;;;;;23.90;71.90;;;;;;5055306;28;19927;-61
2022/08/13 07:07:17;;;;;;;;;;;23.90;71.60;;;;;;5054736;28;19917;-57
2022/08/13 07:09:44;;;;;;;;;;;24.00;71.70;;;;;;5055019;28;20002;-55
2022/08/13 07:12:12;;;;;;;;;;;24.00;71.50;;;;;;5054903;28;19913;-54
2022/08/13 07:14:40;;;;;;;;;;;24.00;71.50;;;;;;5055302;28;19921;-56
2022/08/13 07:17:06;;;;;;;;;;;24.10;71.30;;;;;;5054324;28;19913;-57
2022/08/13 07:19:33;;;;;;;;;;;24.20;71.00;;;;;;5039411;28;19988;-56
2022/08/13 07:21:59;;;;;;;;;;;24.30;71.00;;;;;;5053118;28;19916;-57
2022/08/13 07:24:26;;;;;;;;;;;24.40;71.00;;;;;;5054987;28;20396;-59
2022/08/13 07:26:52;;;;;;;;;;;24.30;71.00;;;;;;5054625;28;20285;-54
2022/08/13 07:29:19;;;;;;;;;;;24.40;70.90;;;;;;5054270;28;19912;-55
2022/08/13 07:31:45;;;;;;;;;;;24.30;71.00;;;;;;5055148;28;19920;-55
2022/08/13 07:34:10;;;;;;;;;;;24.10;72.00;;;;;;5053635;28;19921;-56
2022/08/13 07:36:37;;;;;;;;;;;24.10;72.10;;;;;;5054830;28;20380;-58
2022/08/13 07:39:11;;;;;;;;;;;24.30;71.60;;;;;;5054382;28;19909;-57
2022/08/13 07:41:45;;;;;;;;;;;24.30;71.30;;;;;;5054658;28;19915;-59
2022/08/13 07:44:11;;;;;;;;;;;24.50;71.00;;;;;;5054185;28;19920;-54
2022/08/13 07:46:39;;;;;;;;;;;24.70;70.80;;;;;;5054111;28;19908;-58
2022/08/13 07:49:06;;;;;;;;;;;24.80;70.50;;;;;;5054800;28;19915;-60
2022/08/13 07:51:32;;;;;;;;;;;24.80;70.80;;;;;;5054890;28;20400;-58
2022/08/13 07:53:57;;;;;;;;;;;24.90;70.50;;;;;;5035447;28;19921;-58
2022/08/13 07:56:30;;;;;;;;;;;24.90;70.50;;;;;;5034913;28;19917;-54
2022/08/13 07:59:00;;;;;;;;;;;24.90;70.70;;;;;;5033797;28;19909;-59
2022/08/13 08:01:27;;;;;;;;;;;25.00;70.60;;;;;;5034532;28;19924;-58
2022/08/13 08:03:54;;;;;;;;;;;25.00;70.80;;;;;;5034156;28;20024;-57
2022/08/13 08:06:23;;;;;;;;;;;25.00;70.70;;;;;;5033496;28;19944;-56
2022/08/13 08:08:53;;;;;;;;;;;24.90;70.90;;;;;;5034656;28;19913;-58
2022/08/13 08:14:04;;;;;;;;;;;25.20;70.70;;;;;;5034623;28;19913;-57
2022/08/13 08:16:30;;;;;;;;;;;25.30;70.50;;;;;;5033928;28;19966;-58
2022/08/13 08:18:57;;;;;;;;;;;25.30;70.70;;;;;;5033211;28;19909;-58
2022/08/13 08:21:26;;;;;;;;;;;25.40;70.80;;;;;;5032926;28;19909;-56
2022/08/13 08:23:57;;;;;;;;;;;25.60;70.60;;;;;;5033515;28;19932;-55
2022/08/13 08:26:26;;;;;;;;;;;25.60;70.40;;;;;;5033573;28;19909;-55
2022/08/13 08:28:55;;;;;;;;;;;25.80;70.40;;;;;;5033378;28;19917;-57
2022/08/13 08:31:21;;;;;;;;;;;25.80;70.10;;;;;;5033206;28;19916;-58
2022/08/13 08:33:47;;;;;;;;;;;25.90;70.30;;;;;;5032394;28;19958;-59
2022/08/13 08:36:13;;;;;;;;;;;25.90;70.10;;;;;;5032979;28;20003;-58
2022/08/13 08:44:20;;;;;;;;;;;26.00;69.90;;;;;;5040548;28;19909;-58
2022/08/13 08:46:47;;;;;;;;;;;25.80;70.60;;;;;;5052881;28;19916;-58
2022/08/13 08:49:13;;;;;;;;;;;25.90;70.70;;;;;;5052812;28;19912;-56
2022/08/13 08:51:39;;;;;;;;;;;26.00;70.70;;;;;;5052993;28;19958;-57
2022/08/13 08:54:06;;;;;;;;;;;26.10;70.60;;;;;;5052678;28;19921;-55
2022/08/13 08:56:34;;;;;;;;;;;26.30;70.60;;;;;;5051506;28;21370;-57
2022/08/13 08:59:00;;;;;;;;;;;26.40;70.40;;;;;;5051477;28;19928;-55
2022/08/13 09:01:25;;;;;;;;;;;26.60;70.10;;;;;;5052746;28;19909;-58
2022/08/13 09:03:53;;;;;;;;;;;26.70;69.90;;;;;;5067848;28;20348;-58
2022/08/13 09:06:21;;;;;;;;;;;26.90;69.70;;;;;;5051944;28;20003;-56
2022/08/13 09:08:47;;;;;;;;;;;27.00;68.80;;;;;;5052109;28;20385;-58
2022/08/13 09:11:18;;;;;;;;;;;26.90;68.80;;;;;;5051478;28;19913;-61
2022/08/13 09:13:47;;;;;;;;;;;26.70;69.00;;;;;;5052498;28;19916;-59
2022/08/13 09:16:13;;;;;;;;;;;26.60;69.10;;;;;;5052987;28;19982;-58
2022/08/13 09:18:39;;;;;;;;;;;26.40;69.60;;;;;;5053132;28;19917;-59
2022/08/13 09:21:06;;;;;;;;;;;26.60;69.40;;;;;;5042525;28;19913;-58
2022/08/13 09:23:33;;;;;;;;;;;26.90;69.20;;;;;;5068793;28;19912;-57
2022/08/13 09:25:58;;;;;;;;;;;27.10;68.70;;;;;;5053123;28;19917;-57
2022/08/13 09:28:24;;;;;;;;;;;27.30;68.40;;;;;;5068596;28;20206;-56
2022/08/13 09:30:51;;;;;;;;;;;27.20;68.30;;;;;;5052955;28;19913;-58
2022/08/13 09:33:18;;;;;;;;;;;27.20;68.50;;;;;;5053666;28;20292;-59
2022/08/13 09:35:44;;;;;;;;;;;27.00;68.90;;;;;;5053316;28;20003;-58
2022/08/13 09:38:09;;;;;;;;;;;26.90;69.10;;;;;;5053692;28;19913;-59
2022/08/13 09:40:38;;;;;;;;;;;26.90;68.40;;;;;;5052060;28;20012;-54
2022/08/13 09:43:10;;;;;;;;;;;27.10;67.90;;;;;;5068837;28;20487;-58
2022/08/13 09:45:36;;;;;;;;;;;27.20;68.20;;;;;;5054040;28;19913;-54
2022/08/13 09:48:08;;;;;;;;;;;27.20;68.00;;;;;;5053354;28;19969;-57
2022/08/13 09:50:33;;;;;;;;;;;27.10;67.90;;;;;;5052772;28;19913;-55
2022/08/13 09:52:59;;;;;;;;;;;27.10;68.40;;;;;;5050976;28;20452;-54
2022/08/13 09:55:24;;;;;;;;;;;27.00;68.30;;;;;;5053277;28;19927;-55
2022/08/13 09:57:51;;;;;;;;;;;27.10;68.60;;;;;;5053947;28;20323;-58
2022/08/13 10:00:21;;;;;;;;;;;27.10;68.70;;;;;;5054123;28;19955;-59
2022/08/13 10:02:52;;;;;;;;;;;27.10;68.60;;;;;;5052526;28;19917;-55
2022/08/13 10:05:18;;;;;;;;;;;27.00;68.80;;;;;;5053484;28;19921;-56
2022/08/13 10:07:44;;;;;;;;;;;27.00;68.60;;;;;;5052797;28;19959;-55
2022/08/13 10:10:10;;;;;;;;;;;27.10;68.70;;;;;;5052767;28;19917;-54
2022/08/13 10:12:35;;;;;;;;;;;27.10;68.60;;;;;;5052022;28;19962;-53
2022/08/13 10:15:01;;;;;;;;;;;27.20;68.80;;;;;;5053737;28;20011;-57
2022/08/13 10:17:27;;;;;;;;;;;27.20;69.10;;;;;;5052750;28;19923;-58
2022/08/13 10:19:53;;;;;;;;;;;27.20;69.50;;;;;;5034657;28;19920;-54
2022/08/13 10:22:19;;;;;;;;;;;27.20;69.20;;;;;;5032852;28;19920;-59
2022/08/13 10:24:44;;;;;;;;;;;27.10;69.70;;;;;;5056107;28;19913;-56
2022/08/13 10:27:10;;;;;;;;;;;26.90;69.50;;;;;;5056128;28;19913;-57
2022/08/13 10:29:35;;;;;;;;;;;26.80;70.00;;;;;;5055501;28;19971;-56
2022/08/13 10:32:02;;;;;;;;;;;26.60;70.30;;;;;;5056164;28;20035;-60
2022/08/13 10:34:28;;;;;;;;;;;26.40;70.80;;;;;;5055221;28;20316;-54
2022/08/13 10:36:59;;;;;;;;;;;26.20;71.10;;;;;;5055437;28;19919;-57
2022/08/13 10:39:25;;;;;;;;;;;26.20;71.50;;;;;;5055892;28;19917;-56
2022/08/13 10:41:51;;;;;;;;;;;26.20;71.80;;;;;;5055931;28;19921;-56
2022/08/13 10:44:19;;;;;;;;;;;26.10;72.10;;;;;;5055609;28;20368;-54
2022/08/13 10:46:46;;;;;;;;;;;25.90;72.70;;;;;;5054625;28;20008;-55
2022/08/13 10:49:12;;;;;;;;;;;25.90;73.00;;;;;;5055144;28;19917;-58
2022/08/13 10:51:37;;;;;;;;;;;25.90;72.90;;;;;;5054779;28;19917;-55
2022/08/13 10:54:05;;;;;;;;;;;26.00;72.90;;;;;;5054550;28;19921;-56
2022/08/13 10:56:31;;;;;;;;;;;26.10;72.60;;;;;;5055594;28;19916;-56
2022/08/13 10:58:59;;;;;;;;;;;26.20;72.60;;;;;;5052919;28;19956;-58
2022/08/13 11:01:26;;;;;;;;;;;26.30;72.30;;;;;;5054724;28;19920;-52
2022/08/13 11:03:58;;;;;;;;;;;26.40;71.90;;;;;;5054920;28;20265;-55
2022/08/13 11:06:27;;;;;;;;;;;26.60;71.60;;;;;;5054298;28;19924;-55
2022/08/13 11:08:54;;;;;;;;;;;26.70;71.20;;;;;;5054986;28;19912;-60
2022/08/13 11:11:20;;;;;;;;;;;26.60;71.50;;;;;;5055192;28;19921;-54
2022/08/13 11:13:46;;;;;;;;;;;26.60;71.70;;;;;;5054113;28;20372;-55
2022/08/13 11:18:55;;;;;;;;;;;26.70;71.80;;;;;;5055865;28;20373;-52
2022/08/13 11:21:22;;;;;;;;;;;26.80;71.70;;;;;;5041685;28;20008;-56
2022/08/13 11:23:47;;;;;;;;;;;27.00;71.50;;;;;;5050999;28;19913;-58
2022/08/13 11:26:13;;;;;;;;;;;27.20;71.50;;;;;;5055085;28;20261;-56
2022/08/13 11:28:38;;;;;;;;;;;27.40;71.00;;;;;;5054797;28;20341;-56
2022/08/13 11:31:04;;;;;;;;;;;27.40;70.60;;;;;;5055092;28;19920;-54
2022/08/13 11:33:30;;;;;;;;;;;27.60;70.30;;;;;;5053966;28;20270;-58
2022/08/13 11:35:56;;;;;;;;;;;27.60;70.20;;;;;;5054359;28;19920;-55
2022/08/13 11:38:22;;;;;;;;;;;27.70;69.80;;;;;;5053836;28;19912;-58
2022/08/13 11:40:49;;;;;;;;;;;27.80;70.00;;;;;;5055076;28;19951;-57
2022/08/13 11:43:15;;;;;;;;;;;28.00;69.60;;;;;;5054284;28;20008;-57
2022/08/13 11:45:40;;;;;;;;;;;28.20;69.40;;;;;;5053084;28;19955;-53
2022/08/13 11:48:06;;;;;;;;;;;28.40;69.00;;;;;;5054262;28;20007;-56
2022/08/13 11:50:32;;;;;;;;;;;28.70;68.10;;;;;;5053680;28;19916;-57
2022/08/13 11:52:58;;;;;;;;;;;28.70;68.20;;;;;;5053267;28;20384;-57
2022/08/13 11:55:23;;;;;;;;;;;28.80;67.70;;;;;;5054386;28;20254;-57
2022/08/13 11:57:57;;;;;;;;;;;28.60;67.80;;;;;;5053313;28;19923;-58
2022/08/13 12:00:23;;;;;;;;;;;28.60;67.50;;;;;;5052873;28;19909;-57
2022/08/13 12:02:49;;;;;;;;;;;28.70;67.10;;;;;;5052680;28;20138;-57
2022/08/13 12:05:14;;;;;;;;;;;28.50;67.40;;;;;;5053024;28;20333;-58
2022/08/13 12:07:42;;;;;;;;;;;28.50;67.50;;;;;;5053379;28;19913;-57
2022/08/13 12:10:08;;;;;;;;;;;28.70;67.20;;;;;;5052158;28;19917;-57
2022/08/13 12:12:34;;;;;;;;;;;28.60;67.50;;;;;;5053669;28;19919;-55
2022/08/13 12:14:59;;;;;;;;;;;28.50;67.60;;;;;;5053824;28;19979;-56
2022/08/13 12:17:25;;;;;;;;;;;28.50;67.40;;;;;;5052937;28;19947;-57
2022/08/13 12:19:50;;;;;;;;;;;28.50;67.50;;;;;;5053179;28;19923;-58
2022/08/13 12:22:16;;;;;;;;;;;28.60;67.40;;;;;;5054299;28;20365;-57
2022/08/13 12:24:41;;;;;;;;;;;28.50;67.60;;;;;;5052312;28;19919;-54
2022/08/13 12:27:07;;;;;;;;;;;28.60;67.40;;;;;;5052172;28;19956;-55
2022/08/13 12:29:32;;;;;;;;;;;28.80;67.10;;;;;;5054570;28;20284;-58
2022/08/13 12:31:58;;;;;;;;;;;28.90;66.50;;;;;;5052599;28;20035;-56
2022/08/13 12:34:23;;;;;;;;;;;28.70;66.50;;;;;;5053845;28;19917;-56
2022/08/13 12:36:49;;;;;;;;;;;28.70;66.70;;;;;;5052501;28;19971;-55
2022/08/13 12:39:15;;;;;;;;;;;28.70;66.90;;;;;;5053183;28;20323;-56
2022/08/13 12:41:40;;;;;;;;;;;28.60;67.20;;;;;;5053443;28;19916;-52
2022/08/13 12:44:06;;;;;;;;;;;28.50;67.40;;;;;;5052953;28;19939;-58
2022/08/13 12:46:31;;;;;;;;;;;28.40;67.70;;;;;;5047018;28;20199;-54
2022/08/13 12:48:57;;;;;;;;;;;28.40;67.80;;;;;;5053147;28;19958;-56
2022/08/13 12:51:22;;;;;;;;;;;28.30;67.50;;;;;;5053705;28;19917;-56
2022/08/13 12:53:48;;;;;;;;;;;28.30;67.40;;;;;;5052580;28;19925;-53
2022/08/13 12:56:13;;;;;;;;;;;28.30;67.60;;;;;;5053478;28;19971;-59
2022/08/13 12:58:39;;;;;;;;;;;28.30;67.80;;;;;;5053063;28;19981;-57
2022/08/13 13:01:04;;;;;;;;;;;28.30;67.50;;;;;;5052282;28;19963;-55
2022/08/13 13:03:30;;;;;;;;;;;28.10;68.10;;;;;;5052353;28;19948;-55
2022/08/13 13:05:56;;;;;;;;;;;28.00;68.60;;;;;;5053199;28;19935;-57
2022/08/13 13:08:23;;;;;;;;;;;28.00;69.20;;;;;;5052516;28;20283;-58
2022/08/13 13:10:49;;;;;;;;;;;27.80;69.20;;;;;;5053109;28;19924;-57
2022/08/13 13:13:15;;;;;;;;;;;27.60;69.90;;;;;;5052866;28;19921;-56
2022/08/13 13:15:41;;;;;;;;;;;27.60;70.00;;;;;;5052970;28;19939;-57
2022/08/13 13:18:10;;;;;;;;;;;27.70;70.20;;;;;;5053590;28;19927;-58
2022/08/13 13:20:36;;;;;;;;;;;27.70;69.90;;;;;;5053800;28;20008;-53
2022/08/13 13:23:02;;;;;;;;;;;27.80;69.60;;;;;;5052577;28;20337;-58
2022/08/13 13:25:27;;;;;;;;;;;27.70;69.40;;;;;;5052820;28;19970;-54
2022/08/13 13:27:54;;;;;;;;;;;27.70;69.40;;;;;;5052687;28;20007;-56
2022/08/13 13:30:21;;;;;;;;;;;28.00;69.60;;;;;;5051218;28;19917;-56
2022/08/13 13:32:46;;;;;;;;;;;28.10;69.00;;;;;;5053114;28;20254;-57
2022/08/13 13:35:12;;;;;;;;;;;28.10;69.00;;;;;;5053158;28;19917;-56
2022/08/13 13:37:42;;;;;;;;;;;28.10;69.10;;;;;;5053001;28;19923;-52
2022/08/13 13:40:09;;;;;;;;;;;28.00;69.20;;;;;;5053138;28;19917;-56
2022/08/13 13:42:35;;;;;;;;;;;27.90;69.90;;;;;;5052635;28;19917;-57
2022/08/13 13:45:00;;;;;;;;;;;27.60;70.80;;;;;;5050003;28;19924;-57
2022/08/13 13:47:28;;;;;;;;;;;27.30;71.50;;;;;;5037406;28;19913;-57
2022/08/13 13:49:54;;;;;;;;;;;27.20;71.70;;;;;;5048197;28;19917;-57
2022/08/13 13:52:20;;;;;;;;;;;27.30;71.70;;;;;;5052236;28;20292;-56
2022/08/13 13:54:46;;;;;;;;;;;27.40;71.40;;;;;;5052585;28;19920;-55
2022/08/13 13:57:12;;;;;;;;;;;27.40;71.00;;;;;;5052703;28;19917;-56
2022/08/13 13:59:38;;;;;;;;;;;27.30;71.30;;;;;;5056089;28;19913;-59
2022/08/13 14:02:04;;;;;;;;;;;27.40;71.10;;;;;;5056216;28;19913;-58
2022/08/13 14:04:30;;;;;;;;;;;27.40;71.10;;;;;;5056450;28;20007;-56
2022/08/13 14:07:02;;;;;;;;;;;27.40;71.00;;;;;;5055995;28;19921;-56
2022/08/13 14:09:28;;;;;;;;;;;27.30;71.00;;;;;;5056025;28;19919;-57
2022/08/13 14:11:55;;;;;;;;;;;27.30;71.00;;;;;;5056065;28;19955;-57
2022/08/13 14:14:21;;;;;;;;;;;27.40;71.40;;;;;;5055521;28;20015;-55
2022/08/13 14:16:47;;;;;;;;;;;27.60;70.30;;;;;;5054941;28;20733;-57
2022/08/13 14:19:14;;;;;;;;;;;27.80;70.00;;;;;;5055856;28;19913;-55
2022/08/13 14:21:39;;;;;;;;;;;28.10;69.80;;;;;;5055653;28;19916;-56
2022/08/13 14:24:05;;;;;;;;;;;28.10;69.40;;;;;;5056320;28;19913;-56
2022/08/13 14:26:31;;;;;;;;;;;28.00;69.40;;;;;;5055603;28;20382;-58
2022/08/13 14:28:57;;;;;;;;;;;28.10;68.90;;;;;;5055217;28;19935;-56
2022/08/13 14:31:23;;;;;;;;;;;28.10;68.80;;;;;;5055035;28;19999;-58
2022/08/13 14:33:48;;;;;;;;;;;27.90;68.90;;;;;;5055406;28;20319;-59